Time;durP1;ratioP1;P1;durP2;ratioP2;P2;SDS_P1;SDS_P2;PMS_P1;PMS_P2;Temp;Humidity;BMP_temperature;BMP_pressure;BME280_temperature;BME280_humidity;BME280_pressure;Samples;Min_cycle;Max_cycle;Signal;HPM_P1;HPM_P2
2022/12/24 00:00:35;;;;;;;33.72;18.42;;;;;;;3.41;76.26;93786.94;6165571;23;20040;-82
2022/12/24 00:03:01;;;;;;;36.47;17.48;;;;;;;3.45;75.95;93792.44;6164774;23;20010;-80
2022/12/24 00:05:27;;;;;;;30.52;16.30;;;;;;;3.42;75.77;93785.88;6139364;23;20287;-80
2022/12/24 00:07:52;;;;;;;31.15;17.20;;;;;;;3.42;75.72;93782.47;6165300;23;20016;-81
2022/12/24 00:10:18;;;;;;;36.17;17.15;;;;;;;3.42;75.59;93779.84;6165559;23;20017;-81
2022/12/24 00:12:43;;;;;;;40.65;17.33;;;;;;;3.41;75.91;93786.94;6165815;23;20288;-80
2022/12/24 00:15:09;;;;;;;44.13;17.42;;;;;;;3.44;76.06;93790.09;6165342;23;20227;-81
2022/12/24 00:17:35;;;;;;;35.63;18.27;;;;;;;3.45;76.19;93789.81;6165658;23;20008;-80
2022/12/24 00:20:01;;;;;;;43.35;18.60;;;;;;;3.46;76.18;93798.50;6165278;23;20072;-80
2022/12/24 00:22:26;;;;;;;47.25;20.02;;;;;;;3.45;76.34;93789.81;6165250;23;20358;-80
2022/12/24 00:24:52;;;;;;;45.35;20.45;;;;;;;3.49;76.41;93805.88;6165733;23;20057;-80
2022/12/24 00:27:17;;;;;;;34.25;15.27;;;;;;;3.46;76.78;93798.50;6139470;23;20180;-80
2022/12/24 00:29:42;;;;;;;28.55;14.23;;;;;;;3.48;76.65;93791.94;6165019;23;19997;-80
2022/12/24 00:32:09;;;;;;;29.05;14.43;;;;;;;3.48;76.66;93776.13;6165442;23;20006;-80
2022/12/24 00:34:38;;;;;;;26.02;12.95;;;;;;;3.52;76.79;93778.97;6139255;23;20346;-80
2022/12/24 00:37:05;;;;;;;25.80;13.40;;;;;;;3.52;76.96;93786.88;6165156;23;20046;-80
2022/12/24 00:39:30;;;;;;;29.77;14.73;;;;;;;3.51;76.70;93785.31;6165129;23;19997;-81
2022/12/24 00:41:56;;;;;;;28.05;14.85;;;;;;;3.51;76.40;93787.97;6165337;23;20002;-80
2022/12/24 00:44:21;;;;;;;27.65;13.85;;;;;;;3.51;76.15;93793.22;6165080;23;20004;-80
2022/12/24 00:46:47;;;;;;;27.15;13.88;;;;;;;3.48;76.12;93783.22;6165438;23;20001;-78
2022/12/24 00:49:13;;;;;;;29.02;13.07;;;;;;;3.45;75.95;93787.19;6164617;23;20288;-78
2022/12/24 00:51:38;;;;;;;26.88;14.13;;;;;;;3.43;76.13;93789.31;6137824;23;20017;-80
2022/12/24 00:54:04;;;;;;;26.02;13.82;;;;;;;3.44;76.32;93792.72;6164154;23;20013;-82
2022/12/24 00:56:30;;;;;;;24.83;12.25;;;;;;;3.44;76.45;93797.97;6164950;23;20295;-81
2022/12/24 00:58:56;;;;;;;28.60;12.63;;;;;;;3.41;76.59;93794.06;6164817;23;20005;-81
2022/12/24 01:01:22;;;;;;;25.15;13.00;;;;;;;3.37;76.71;93803.56;6165403;23;19997;-82
2022/12/24 01:03:48;;;;;;;22.17;12.32;;;;;;;3.37;76.85;93798.28;6165191;23;19998;-79
2022/12/24 01:06:16;;;;;;;33.25;12.32;;;;;;;3.38;77.15;93805.13;6164796;23;20254;-78
2022/12/24 01:08:42;;;;;;;29.48;13.27;;;;;;;3.36;77.06;93786.19;6165038;23;20024;-79
2022/12/24 01:11:09;;;;;;;27.08;12.80;;;;;;;3.36;77.15;93780.91;6165099;23;19997;-79
2022/12/24 01:13:35;;;;;;;22.65;12.50;;;;;;;3.34;77.17;93794.34;6165169;23;20037;-79
2022/12/24 01:16:02;;;;;;;24.88;12.13;;;;;;;3.34;77.30;93804.88;6164124;23;20287;-79
2022/12/24 01:18:27;;;;;;;28.92;13.70;;;;;;;3.36;77.17;93802.78;6164858;23;20021;-78
2022/12/24 01:21:01;;;;;;;27.30;13.60;;;;;;;3.36;77.34;93802.00;6165034;23;20005;-79
2022/12/24 01:23:28;;;;;;;25.83;12.23;;;;;;;3.35;77.66;93797.75;6164942;23;19997;-82
2022/12/24 01:25:54;;;;;;;23.90;10.95;;;;;;;3.36;77.95;93786.19;6164986;23;20001;-80
2022/12/24 01:28:20;;;;;;;30.23;13.48;;;;;;;3.39;77.85;93780.34;6164690;23;20008;-78
2022/12/24 01:30:46;;;;;;;29.15;12.00;;;;;;;3.38;77.66;93782.22;6165160;23;19998;-78
2022/12/24 01:33:12;;;;;;;21.25;11.82;;;;;;;3.37;77.58;93770.09;6164889;23;19998;-78
2022/12/24 01:35:42;;;;;;;26.35;12.80;;;;;;;3.37;77.40;93775.34;6138692;23;20020;-79
2022/12/24 01:38:10;;;;;;;25.10;12.05;;;;;;;3.36;76.80;93780.91;6164889;23;20006;-79
2022/12/24 01:43:22;;;;;;;20.95;11.05;;;;;;;3.30;76.33;93793.31;6164671;23;20076;-78
2022/12/24 01:45:58;;;;;;;23.45;11.48;;;;;;;3.30;76.44;93795.94;6164792;23;20196;-78
2022/12/24 01:48:48;;;;;;;25.42;11.45;;;;;;;3.30;76.55;93797.78;6164632;23;20080;-80
2022/12/24 01:52:01;;;;;;;25.58;12.50;;;;;;;3.23;76.40;93790.16;6164829;23;20051;-80
2022/12/24 01:54:38;;;;;;;;;;;;;;;3.16;76.74;93784.41;6018195;23;20008;-79
2022/12/24 01:57:08;;;;;;;23.10;11.20;;;;;;;3.12;76.51;93791.25;6146046;23;19956;-81
2022/12/24 01:59:36;;;;;;;22.90;10.38;;;;;;;3.07;76.38;93784.13;6164631;23;20005;-81
2022/12/24 02:02:02;;;;;;;19.92;10.32;;;;;;;3.07;76.49;93792.03;6164466;23;20001;-80
2022/12/24 02:04:46;;;;;;;20.73;11.18;;;;;;;3.03;76.20;93769.16;6164337;23;20021;-80
2022/12/24 02:07:11;;;;;;;27.92;12.27;;;;;;;2.99;76.53;93767.06;6163944;23;20021;-80
2022/12/24 02:09:38;;;;;;;25.63;12.73;;;;;;;2.98;76.39;93764.69;6164431;23;20025;-81
2022/12/24 02:12:05;;;;;;;32.30;14.65;;;;;;;2.96;76.33;93769.44;6164285;23;20070;-80
2022/12/24 02:14:31;;;;;;;40.20;16.48;;;;;;;2.92;76.28;93769.16;6164516;23;20008;-79
2022/12/24 02:17:08;;;;;;;28.55;13.05;;;;;;;2.90;76.07;93768.66;6164592;23;19997;-77
2022/12/24 02:19:34;;;;;;;29.63;11.93;;;;;;;2.88;76.09;93778.66;6164537;23;20002;-78
2022/12/24 02:22:17;;;;;;;24.05;12.10;;;;;;;2.85;77.37;93781.03;6164215;23;20224;-78
2022/12/24 02:24:58;;;;;;;29.10;12.57;;;;;;;2.81;77.86;93775.53;6164434;23;20065;-79
2022/12/24 02:27:41;;;;;;;20.92;12.05;;;;;;;2.75;78.13;93781.84;6164195;23;20074;-79
2022/12/24 02:30:13;;;;;;;27.35;12.98;;;;;;;2.73;78.23;93773.44;6138473;23;20013;-79
2022/12/24 02:33:08;;;;;;;25.25;12.15;;;;;;;2.77;78.69;93783.16;6164443;23;20385;-81
2022/12/24 02:35:48;;;;;;;23.70;11.13;;;;;;;2.80;78.56;93784.47;6164578;23;20212;-81
2022/12/24 02:38:22;;;;;;;26.40;12.05;;;;;;;2.78;78.46;93781.31;6164407;23;20056;-80
2022/12/24 02:40:58;;;;;;;30.00;13.45;;;;;;;2.77;78.66;93774.50;6164679;23;20001;-80
2022/12/24 02:43:28;;;;;;;25.35;13.75;;;;;;;2.76;78.51;93776.31;6164380;23;20008;-80
2022/12/24 02:45:58;;;;;;;29.48;13.20;;;;;;;2.75;78.46;93766.84;6164615;23;19997;-80
2022/12/24 02:48:26;;;;;;;34.08;12.77;;;;;;;2.79;78.18;93764.47;6164153;23;20005;-79
2022/12/24 02:51:05;;;;;;;25.58;12.93;;;;;;;2.77;77.34;93762.09;6164208;23;20012;-79
2022/12/24 02:53:32;;;;;;;28.13;10.82;;;;;;;2.68;77.33;93768.94;6165639;23;19997;-79
2022/12/24 02:56:16;;;;;;;24.80;11.57;;;;;;;2.66;77.45;93757.91;6166246;23;19993;-80
2022/12/24 02:58:59;;;;;;;18.55;9.63;;;;;;;2.63;77.49;93752.41;6166338;23;20009;-80
2022/12/24 03:01:49;;;;;;;16.73;9.85;;;;;;;2.59;77.45;93758.19;6166222;23;20056;-80
2022/12/24 03:05:09;;;;;;;22.05;10.07;;;;;;;2.57;77.52;93752.41;6166095;23;20018;-80
2022/12/24 03:07:46;;;;;;;20.35;9.43;;;;;;;2.56;77.71;93766.59;6047464;23;20015;-77
2022/12/24 03:10:22;;;;;;;33.38;14.55;;;;;;;2.51;77.61;93761.34;6125057;23;20006;-80
2022/12/24 03:12:55;;;;;;;18.08;10.43;;;;;;;2.50;77.74;93764.22;6136690;23;19994;-79
2022/12/24 03:15:24;;;;;;;19.02;10.10;;;;;;;2.53;77.96;93751.34;6136660;23;19994;-79
2022/12/24 03:17:53;;;;;;;18.70;8.98;;;;;;;2.47;77.81;93757.66;6136631;23;19994;-79
2022/12/24 03:20:25;;;;;;;31.88;13.38;;;;;;;2.46;78.47;93748.19;6136576;23;20002;-79
2022/12/24 03:22:51;;;;;;;52.33;21.95;;;;;;;2.47;78.55;93755.03;6136472;23;20002;-79
2022/12/24 03:25:17;;;;;;;55.92;22.10;;;;;;;2.51;78.59;93756.09;6136463;23;20056;-79
2022/12/24 03:27:43;;;;;;;49.20;20.67;;;;;;;2.50;78.77;93757.13;6136565;23;20002;-79
2022/12/24 03:30:13;;;;;;;48.30;20.65;;;;;;;2.44;78.64;93754.78;6136311;23;20010;-80
2022/12/24 03:32:39;;;;;;;39.78;17.85;;;;;;;2.44;78.78;93755.56;6136271;23;20006;-79
2022/12/24 03:35:06;;;;;;;27.25;13.70;;;;;;;2.44;78.51;93766.06;6136542;23;20005;-80
2022/12/24 03:37:32;;;;;;;23.35;12.38;;;;;;;2.47;78.78;93765.56;6136392;23;20002;-77
2022/12/24 03:39:57;;;;;;;24.02;11.48;;;;;;;2.49;78.61;93757.41;6136276;23;20028;-80
2022/12/24 03:42:23;;;;;;;21.10;9.40;;;;;;;2.47;78.73;93755.03;6135980;23;19997;-80
2022/12/24 03:44:48;;;;;;;19.23;10.05;;;;;;;2.47;78.39;93762.94;6136460;23;19994;-80
2022/12/24 03:47:14;;;;;;;16.23;8.82;;;;;;;2.46;77.84;93753.44;6136469;23;20002;-80
2022/12/24 03:49:39;;;;;;;25.13;9.70;;;;;;;2.43;78.11;93755.84;6136248;23;20273;-80
2022/12/24 03:52:05;;;;;;;18.75;9.80;;;;;;;2.46;77.79;93755.28;6136031;23;20066;-80
2022/12/24 03:54:30;;;;;;;19.48;10.45;;;;;;;2.43;77.66;93761.09;6136131;23;19998;-80
2022/12/24 03:56:56;;;;;;;24.70;11.07;;;;;;;2.42;77.84;93768.19;6136090;23;20021;-80
2022/12/24 03:59:21;;;;;;;21.55;11.88;;;;;;;2.42;77.95;93768.19;6136453;23;20009;-80
2022/12/24 04:01:47;;;;;;;22.95;12.38;;;;;;;2.40;78.09;93759.75;6136431;23;20001;-81
2022/12/24 04:04:12;;;;;;;21.92;12.52;;;;;;;2.40;78.05;93775.53;6135673;23;20292;-80
2022/12/24 04:06:38;;;;;;;23.48;12.40;;;;;;;2.38;77.90;93775.03;6148891;23;20056;-80
2022/12/24 04:09:04;;;;;;;22.38;11.65;;;;;;;2.38;77.94;93777.66;6165582;23;20001;-80
2022/12/24 04:11:31;;;;;;;20.90;11.55;;;;;;;2.37;77.85;93771.59;6139580;23;20060;-80
2022/12/24 04:13:56;;;;;;;24.90;13.10;;;;;;;2.38;77.54;93788.97;6165576;23;20294;-79
2022/12/24 04:16:22;;;;;;;27.40;13.98;;;;;;;2.35;78.63;93786.09;6165566;23;20008;-80
2022/12/24 04:18:47;;;;;;;28.50;14.63;;;;;;;2.31;79.13;93788.44;6165584;23;20017;-80
2022/12/24 04:21:13;;;;;;;32.05;15.63;;;;;;;2.31;79.23;93795.56;6165216;23;20001;-80
2022/12/24 04:23:40;;;;;;;27.52;13.50;;;;;;;2.35;79.76;93786.09;6165397;23;20445;-81
2022/12/24 04:26:08;;;;;;;28.85;15.43;;;;;;;2.39;80.04;93797.66;6165497;23;20001;-81
2022/12/24 04:28:34;;;;;;;30.95;15.45;;;;;;;2.40;79.51;93783.44;6165267;23;20064;-81
2022/12/24 04:31:02;;;;;;;30.67;15.50;;;;;;;2.39;79.15;93787.91;6165437;23;20231;-81
2022/12/24 04:33:28;;;;;;;25.95;14.40;;;;;;;2.37;79.05;93791.88;6165347;23;19993;-79
2022/12/24 04:35:55;;;;;;;24.98;13.75;;;;;;;2.39;78.62;93800.28;6165542;23;20280;-80
2022/12/24 04:38:21;;;;;;;26.02;12.90;;;;;;;2.35;78.41;93800.00;6165371;23;20001;-81
2022/12/24 04:40:46;;;;;;;23.60;11.77;;;;;;;2.34;78.15;93798.47;6165392;23;20017;-81
2022/12/24 04:43:12;;;;;;;26.92;12.40;;;;;;;2.33;78.20;93803.97;6164932;23;20000;-80
2022/12/24 04:45:37;;;;;;;25.33;12.77;;;;;;;2.31;78.24;93816.59;6165334;23;20184;-80
2022/12/24 04:48:03;;;;;;;22.55;10.68;;;;;;;2.31;78.09;93820.00;6165311;23;19993;-81
2022/12/24 04:50:28;;;;;;;33.42;13.82;;;;;;;2.30;78.22;93815.81;6165258;23;20008;-81
2022/12/24 04:52:54;;;;;;;21.80;10.77;;;;;;;2.29;78.30;93813.44;6165017;23;20001;-79
2022/12/24 04:55:19;;;;;;;20.60;10.43;;;;;;;2.24;78.46;93808.16;6165212;23;20013;-80
2022/12/24 04:57:44;;;;;;;26.25;10.73;;;;;;;2.22;78.46;93805.81;6165161;23;20303;-80
2022/12/24 05:00:10;;;;;;;25.05;12.25;;;;;;;2.23;78.71;93804.75;6165195;23;20001;-81
2022/12/24 05:02:36;;;;;;;19.48;11.32;;;;;;;2.24;78.79;93787.94;6164906;23;20052;-81
2022/12/24 05:05:02;;;;;;;21.15;10.10;;;;;;;2.24;78.60;93803.72;6165262;23;19998;-80
2022/12/24 05:07:27;;;;;;;17.08;8.52;;;;;;;2.26;78.46;93790.28;6164713;23;20315;-80
2022/12/24 05:09:53;;;;;;;16.95;7.20;;;;;;;2.24;78.43;93792.38;6165024;23;20008;-78
2022/12/24 05:12:19;;;;;;;30.65;11.00;;;;;;;2.23;78.24;93790.81;6165208;23;20048;-78
2022/12/24 05:14:44;;;;;;;30.58;13.18;;;;;;;2.21;78.26;93781.34;6165294;23;20299;-78
2022/12/24 05:17:09;;;;;;;38.78;13.40;;;;;;;2.23;78.18;93775.81;6138481;23;20314;-78
2022/12/24 05:19:35;;;;;;;33.55;14.38;;;;;;;2.27;78.00;93770.84;6164895;23;19997;-78
2022/12/24 05:27:29;;;;;;;43.63;16.58;;;;;;;2.21;77.43;93764.78;6164980;23;20306;-78
2022/12/24 05:29:54;;;;;;;42.22;16.15;;;;;;;2.22;77.48;93782.16;6164511;23;20002;-78
2022/12/24 05:32:20;;;;;;;37.90;17.85;;;;;;;2.22;77.52;93790.03;6164877;23;20383;-78
2022/12/24 05:34:45;;;;;;;34.95;15.77;;;;;;;2.21;77.64;93786.59;6164948;23;20020;-79
2022/12/24 05:37:10;;;;;;;34.58;16.88;;;;;;;2.22;78.05;93787.41;6138692;23;20002;-78
2022/12/24 05:39:36;;;;;;;36.88;17.50;;;;;;;2.24;78.11;93781.84;6164795;23;20032;-77
2022/12/24 05:42:01;;;;;;;34.40;16.13;;;;;;;2.24;78.27;93787.13;6164583;23;20001;-77
2022/12/24 05:44:27;;;;;;;27.08;15.93;;;;;;;2.25;78.14;93773.72;6164560;23;20001;-77
2022/12/24 05:46:52;;;;;;;31.95;15.52;;;;;;;2.27;78.03;93779.50;6164877;23;20867;-78
2022/12/24 05:49:17;;;;;;;28.55;15.30;;;;;;;2.28;77.96;93767.94;6164893;23;20061;-77
2022/12/24 05:51:43;;;;;;;32.85;15.93;;;;;;;2.32;78.11;93769.00;6164600;23;20009;-78
2022/12/24 05:54:08;;;;;;;26.85;14.55;;;;;;;2.36;77.94;93763.97;6164675;23;20302;-77
2022/12/24 05:56:34;;;;;;;35.53;15.18;;;;;;;2.40;78.01;93757.13;6164415;23;20004;-78
2022/12/24 05:58:59;;;;;;;28.77;13.43;;;;;;;2.43;78.20;93763.72;6164501;23;19997;-78
2022/12/24 06:01:25;;;;;;;24.35;12.55;;;;;;;2.48;78.07;93775.00;6164582;23;19998;-78
2022/12/24 06:03:52;;;;;;;25.67;12.10;;;;;;;2.50;78.08;93772.13;6138489;23;20288;-78
2022/12/24 06:06:26;;;;;;;23.90;12.65;;;;;;;2.56;78.14;93779.75;6138506;23;20225;-79
2022/12/24 06:08:53;;;;;;;25.27;12.48;;;;;;;2.59;78.02;93779.22;6164466;23;20001;-78
2022/12/24 06:11:22;;;;;;;32.30;14.32;;;;;;;2.61;77.86;93782.38;6164707;23;20005;-79
2022/12/24 06:13:48;;;;;;;48.28;19.48;;;;;;;2.69;77.85;93778.44;6164845;23;20310;-78
2022/12/24 06:16:16;;;;;;;40.78;18.02;;;;;;;2.72;77.98;93782.38;6164449;23;20001;-78
2022/12/24 06:18:41;;;;;;;49.63;21.88;;;;;;;2.71;78.14;93786.84;6164316;23;20118;-79
2022/12/24 06:21:08;;;;;;;42.83;21.02;;;;;;;2.77;77.79;93795.53;6164600;23;20005;-79
2022/12/24 06:23:36;;;;;;;42.72;19.85;;;;;;;2.78;77.73;93791.84;6164255;23;20331;-79
2022/12/24 06:26:02;;;;;;;41.92;19.40;;;;;;;2.81;77.69;93794.75;6164370;23;20020;-78
2022/12/24 06:28:30;;;;;;;43.83;19.17;;;;;;;2.87;77.71;93795.53;6165851;23;19997;-78
2022/12/24 06:30:56;;;;;;;51.25;21.10;;;;;;;2.91;77.75;93796.56;6140320;23;19997;-78
2022/12/24 06:33:21;;;;;;;48.53;20.30;;;;;;;2.96;77.81;93804.44;6166490;23;20021;-79
2022/12/24 06:35:47;;;;;;;38.92;20.10;;;;;;;3.00;78.08;93810.75;6166591;23;20004;-79
2022/12/24 06:38:13;;;;;;;33.63;18.88;;;;;;;3.04;78.07;93804.97;6165989;23;20288;-79
2022/12/24 06:40:41;;;;;;;43.42;19.80;;;;;;;3.08;78.06;93811.28;6166262;23;19997;-78
2022/12/24 06:43:06;;;;;;;42.47;19.45;;;;;;;3.10;77.99;93814.44;6166370;23;20009;-79
2022/12/24 06:45:32;;;;;;;40.78;19.80;;;;;;;3.16;77.86;93819.41;6166417;23;20291;-78
2022/12/24 06:47:58;;;;;;;45.72;20.83;;;;;;;3.25;77.42;93814.38;6166058;23;20067;-78
2022/12/24 06:50:24;;;;;;;42.90;19.90;;;;;;;3.33;77.05;93813.81;6166153;23;19997;-78
2022/12/24 06:52:49;;;;;;;43.50;19.52;;;;;;;3.39;76.82;93822.50;6166080;23;20081;-78
2022/12/24 06:55:15;;;;;;;38.38;19.05;;;;;;;3.46;76.30;93820.41;6166277;23;20187;-78
2022/12/24 06:57:40;;;;;;;37.40;18.52;;;;;;;3.55;76.41;93820.63;6165983;23;20049;-78
2022/12/24 07:00:08;;;;;;;43.13;18.48;;;;;;;3.60;76.32;93818.75;6165682;23;20016;-78
2022/12/24 07:02:33;;;;;;;38.20;20.15;;;;;;;3.69;76.31;93815.56;6164066;23;20001;-78
2022/12/24 07:04:58;;;;;;;38.92;19.27;;;;;;;3.75;76.31;93815.25;6138346;23;19997;-78
2022/12/24 07:07:24;;;;;;;35.75;18.60;;;;;;;3.86;76.08;93815.22;6165748;23;20009;-77
2022/12/24 07:09:49;;;;;;;45.85;19.00;;;;;;;3.91;76.58;93818.63;6165458;23;19998;-80
2022/12/24 07:12:15;;;;;;;42.03;21.48;;;;;;;3.97;76.59;93822.00;6166142;23;19997;-80
2022/12/24 07:14:40;;;;;;;39.30;19.95;;;;;;;4.04;76.55;93833.03;6166125;23;20057;-80
2022/12/24 07:17:06;;;;;;;34.70;18.70;;;;;;;4.11;76.62;93815.06;6166077;23;20044;-80
2022/12/24 07:19:31;;;;;;;38.15;19.35;;;;;;;4.20;76.62;93825.84;6166022;23;19998;-80
2022/12/24 07:21:56;;;;;;;38.60;17.85;;;;;;;4.27;76.75;93820.25;6139691;23;20300;-80
2022/12/24 07:24:22;;;;;;;33.08;18.05;;;;;;;4.32;76.59;93822.84;6165104;23;19998;-80
2022/12/24 07:26:47;;;;;;;32.05;17.52;;;;;;;4.39;76.47;93818.81;6165129;23;20020;-81
2022/12/24 07:29:13;;;;;;;35.33;18.10;;;;;;;4.46;76.40;93821.19;6164957;23;20213;-79
2022/12/24 07:31:38;;;;;;;34.63;17.15;;;;;;;4.52;76.22;93822.72;6165887;23;20343;-79
2022/12/24 07:34:04;;;;;;;30.58;16.15;;;;;;;4.59;76.15;93820.53;6165787;23;20219;-81
2022/12/24 07:36:29;;;;;;;31.38;16.58;;;;;;;4.66;75.88;93822.06;6165704;23;20013;-81
2022/12/24 07:38:55;;;;;;;31.73;15.00;;;;;;;4.72;75.57;93820.97;6139273;23;20010;-80
2022/12/24 07:41:21;;;;;;;29.42;17.00;;;;;;;4.77;75.31;93823.56;6139839;23;20005;-85
2022/12/24 07:43:46;;;;;;;34.38;16.88;;;;;;;4.82;74.46;93824.31;6165499;23;19993;-76
2022/12/24 07:46:11;;;;;;;29.92;15.23;;;;;;;4.85;73.84;93825.63;6165386;23;20299;-76
2022/12/24 07:48:37;;;;;;;24.67;14.27;;;;;;;4.87;73.84;93833.28;6165715;23;20040;-76
2022/12/24 07:51:03;;;;;;;36.40;14.65;;;;;;;4.90;73.14;93830.84;6165530;23;19998;-76
2022/12/24 07:53:28;;;;;;;32.13;16.08;;;;;;;4.93;73.23;93832.94;6165486;23;20004;-76
2022/12/24 07:55:54;;;;;;;38.10;15.70;;;;;;;4.98;72.99;93835.53;6165216;23;20005;-75
2022/12/24 07:58:20;;;;;;;31.23;16.13;;;;;;;5.02;73.35;93836.53;6165052;23;20021;-75
2022/12/24 08:00:46;;;;;;;31.85;16.08;;;;;;;5.06;72.96;93836.00;6165607;23;20008;-78
2022/12/24 08:03:19;;;;;;;27.90;16.15;;;;;;;5.12;73.25;93851.50;6165585;23;19993;-79
2022/12/24 08:05:45;;;;;;;30.63;16.25;;;;;;;5.17;73.02;93848.84;6165542;23;20057;-78
2022/12/24 08:08:10;;;;;;;39.25;17.00;;;;;;;5.26;73.10;93858.81;6165565;23;20005;-80
2022/12/24 08:10:38;;;;;;;34.70;17.88;;;;;;;5.26;72.84;93856.94;6165565;23;20193;-80
2022/12/24 08:13:04;;;;;;;38.05;18.27;;;;;;;5.25;73.31;93865.13;6165318;23;20189;-80
2022/12/24 08:15:29;;;;;;;33.03;16.50;;;;;;;5.31;72.81;93875.41;6165359;23;20008;-80
2022/12/24 08:17:54;;;;;;;38.17;18.92;;;;;;;5.31;72.74;93870.13;6165524;23;19997;-81
2022/12/24 08:20:20;;;;;;;40.90;20.45;;;;;;;5.32;72.95;93873.53;6139308;23;20209;-81
2022/12/24 08:22:45;;;;;;;34.85;19.23;;;;;;;5.39;73.05;93866.06;6165457;23;19993;-80
2022/12/24 08:25:11;;;;;;;37.53;21.23;;;;;;;5.46;72.94;93863.09;6165705;23;20008;-81
2022/12/24 08:27:36;;;;;;;43.33;20.25;;;;;;;5.51;73.15;93861.16;6165438;23;20001;-80
2022/12/24 08:30:03;;;;;;;43.92;20.88;;;;;;;5.62;73.40;93861.88;6165372;23;20021;-80
2022/12/24 08:32:29;;;;;;;39.38;19.20;;;;;;;5.71;73.67;93860.16;6165289;23;20199;-80
2022/12/24 08:34:54;;;;;;;43.65;20.45;;;;;;;5.83;73.71;93852.63;6165078;23;20024;-80
2022/12/24 08:37:20;;;;;;;53.83;20.80;;;;;;;5.94;73.70;93855.13;6165274;23;20192;-80
2022/12/24 08:39:45;;;;;;;43.00;21.70;;;;;;;5.99;73.46;93841.88;6165420;23;20008;-80
2022/12/24 08:42:10;;;;;;;44.72;21.80;;;;;;;6.12;73.40;93833.22;6165160;23;20350;-80
2022/12/24 08:44:36;;;;;;;44.00;20.40;;;;;;;6.19;73.33;93822.31;6165061;23;20001;-80
2022/12/24 08:47:01;;;;;;;37.67;17.95;;;;;;;6.31;73.07;93829.81;6165094;23;20306;-80
2022/12/24 08:49:27;;;;;;;28.80;15.57;;;;;;;6.41;72.50;93840.25;6165241;23;20061;-80
2022/12/24 08:51:52;;;;;;;54.33;17.80;;;;;;;6.45;71.66;93835.16;6164974;23;20004;-80
2022/12/24 08:54:18;;;;;;;35.60;16.80;;;;;;;6.46;71.92;93839.41;6165475;23;20001;-80
2022/12/24 08:56:43;;;;;;;35.83;14.63;;;;;;;6.48;71.32;93853.94;6165264;23;20056;-87
2022/12/24 08:59:11;;;;;;;39.00;16.33;;;;;;;6.50;70.31;93865.00;6139789;23;20013;-84
2022/12/24 09:01:37;;;;;;;44.92;20.40;;;;;;;6.40;70.27;93883.69;6166074;23;20001;-89
2022/12/24 09:04:03;;;;;;;47.53;21.02;;;;;;;6.22;70.90;93872.00;6166508;23;20030;-89
2022/12/24 09:06:28;;;;;;;46.83;20.23;;;;;;;6.01;71.04;93874.13;6140293;23;20254;-88
2022/12/24 09:08:54;;;;;;;48.80;21.42;;;;;;;5.84;70.93;93871.91;6165712;23;20308;-84
2022/12/24 09:11:19;;;;;;;46.15;21.15;;;;;;;5.76;71.97;93857.47;6165262;23;20191;-85
2022/12/24 09:13:45;;;;;;;43.95;22.52;;;;;;;5.80;72.92;93853.19;6139243;23;20288;-80
2022/12/24 09:16:11;;;;;;;44.63;21.80;;;;;;;5.89;73.20;93844.63;6163731;23;20016;-80
2022/12/24 09:19:07;;;;;;;39.67;20.98;;;;;;;5.99;73.35;93839.25;6163577;23;19997;-80
2022/12/24 09:21:32;;;;;;;42.63;21.48;;;;;;;6.18;73.29;93839.25;6151470;23;20029;-80
2022/12/24 09:24:00;;;;;;;43.17;22.85;;;;;;;6.35;72.39;93836.09;6164591;23;20056;-79
2022/12/24 09:26:26;;;;;;;45.72;20.90;;;;;;;6.50;71.20;93835.88;6164610;23;20005;-80
2022/12/24 09:28:52;;;;;;;47.88;21.40;;;;;;;6.52;71.34;93833.75;6163507;23;20202;-80
2022/12/24 09:31:18;;;;;;;43.97;22.13;;;;;;;6.59;71.30;93831.53;6164562;23;20013;-80
2022/12/24 09:33:46;;;;;;;43.78;21.50;;;;;;;6.65;70.75;93837.50;6164656;23;19997;-80
2022/12/24 09:36:11;;;;;;;41.83;22.15;;;;;;;6.67;70.97;93845.19;6138629;23;20002;-80
2022/12/24 09:38:39;;;;;;;48.83;21.27;;;;;;;6.69;70.95;93835.09;6164772;23;20005;-80
2022/12/24 09:41:25;;;;;;;45.58;23.15;;;;;;;6.74;70.94;93835.78;6164488;23;19997;-80
2022/12/24 09:43:57;;;;;;;52.55;23.45;;;;;;;6.75;70.42;93849.81;6164715;23;20008;-80
2022/12/24 09:46:30;;;;;;;53.10;24.35;;;;;;;6.75;70.39;93836.56;6164676;23;20003;-80
2022/12/24 09:48:57;;;;;;;;;;;;;;;6.77;70.15;93837.06;6165059;23;20006;-80
2022/12/24 09:51:32;;;;;;;44.08;23.52;;;;;;;6.77;70.23;93832.56;6164667;23;19905;-80
2022/12/24 09:54:20;;;;;;;44.33;23.85;;;;;;;6.86;70.77;93822.09;6164528;23;19993;-79
2022/12/24 09:56:47;;;;;;;49.47;23.85;;;;;;;7.03;70.65;93821.53;6164717;23;20005;-80
2022/12/24 09:59:21;;;;;;;38.90;22.83;;;;;;;7.24;70.36;93827.28;6164654;23;19997;-80
2022/12/24 10:01:49;;;;;;;41.83;21.60;;;;;;;7.43;69.96;93830.66;6164654;23;20204;-80
2022/12/24 10:04:17;;;;;;;52.58;23.52;;;;;;;7.56;68.87;93828.28;6164565;23;20287;-80
2022/12/24 10:07:07;;;;;;;46.33;22.02;;;;;;;7.73;68.36;93828.47;6164332;23;20207;-80
2022/12/24 10:09:46;;;;;;;44.17;21.55;;;;;;;7.89;67.87;93825.53;6164586;23;19997;-80
2022/12/24 10:12:41;;;;;;;45.40;20.70;;;;;;;8.04;67.34;93825.22;6138452;23;20005;-80
2022/12/24 10:15:20;;;;;;;44.97;18.85;;;;;;;8.14;66.82;93821.56;6164355;23;19998;-79
2022/12/24 10:18:21;;;;;;;35.70;17.98;;;;;;;8.26;66.22;93818.41;6164385;23;20006;-80
2022/12/24 10:21:04;;;;;;;32.80;18.15;;;;;;;8.40;65.82;93808.50;6164586;23;20173;-80
2022/12/24 10:23:38;;;;;;;;;;;;;;;8.50;65.72;93818.16;6165030;23;20013;-80
2022/12/24 10:26:27;;;;;;;38.42;15.23;;;;;;;8.60;65.12;93812.63;6164487;23;20079;-80
2022/12/24 10:29:15;;;;;;;29.85;15.57;;;;;;;8.80;63.38;93808.69;6164319;23;20052;-80
2022/12/24 10:31:56;;;;;;;35.30;17.63;;;;;;;8.93;62.73;93815.03;6138391;23;20021;-80
2022/12/24 10:34:25;;;;;;;32.17;15.13;;;;;;;9.04;62.10;93817.13;6164192;23;20284;-80
2022/12/24 10:36:51;;;;;;;27.58;14.55;;;;;;;9.17;61.64;93814.69;6164363;23;20001;-80
2022/12/24 10:39:21;;;;;;;39.55;15.95;;;;;;;9.27;61.82;93811.78;6164358;23;20020;-80
2022/12/24 10:41:52;;;;;;;34.42;17.10;;;;;;;9.39;61.09;93812.00;6164523;23;20001;-80
2022/12/24 10:44:22;;;;;;;38.65;20.00;;;;;;;9.44;60.28;93798.56;6164417;23;20020;-80
2022/12/24 10:46:48;;;;;;;51.55;20.42;;;;;;;9.44;60.28;93795.91;6164486;23;20001;-80
2022/12/24 10:49:38;;;;;;;54.65;24.63;;;;;;;9.49;59.74;93799.53;6163987;23;20010;-80
2022/12/24 10:52:13;;;;;;;62.75;29.02;;;;;;;9.48;59.07;93798.72;6164130;23;20296;-81
2022/12/24 10:55:07;;;;;;;66.85;32.67;;;;;;;9.40;58.28;93802.13;6164239;23;20023;-81
2022/12/24 10:57:34;;;;;;;71.03;36.72;;;;;;;9.34;57.95;93803.34;6164662;23;20052;-81
2022/12/24 11:00:00;;;;;;;84.65;38.00;;;;;;;9.15;58.21;93793.72;6164163;23;20295;-80
2022/12/24 11:02:30;;;;;;;92.25;38.33;;;;;;;9.06;58.80;93808.06;6164158;23;20025;-80
2022/12/24 11:04:59;;;;;;;84.45;42.78;;;;;;;8.95;59.12;93797.69;6164298;23;20232;-80
2022/12/24 11:07:25;;;;;;;91.60;41.33;;;;;;;8.94;59.70;93816.59;6137802;23;20013;-80
2022/12/24 11:10:05;;;;;;;88.03;42.47;;;;;;;8.79;59.13;93815.09;6164271;23;19997;-79
2022/12/24 11:12:35;;;;;;;73.25;40.03;;;;;;;8.76;59.09;93826.34;6137936;23;20310;-80
2022/12/24 11:15:06;;;;;;;94.57;42.45;;;;;;;8.74;59.33;93825.84;6165553;23;19998;-80
2022/12/24 11:17:32;;;;;;;86.82;41.10;;;;;;;8.66;59.38;93805.31;6166171;23;20001;-80
2022/12/24 11:19:59;;;;;;;86.80;38.85;;;;;;;8.60;59.87;93812.63;6166057;23;20001;-80
2022/12/24 11:22:30;;;;;;;85.20;42.30;;;;;;;8.70;60.63;93803.63;6165800;23;19997;-80
2022/12/24 11:25:17;;;;;;;73.10;37.83;;;;;;;8.85;60.09;93792.63;6139894;23;20204;-80
2022/12/24 11:27:48;;;;;;;71.78;38.72;;;;;;;8.97;59.61;93795.50;6166105;23;20200;-79
2022/12/24 11:30:14;;;;;;;82.80;37.75;;;;;;;9.11;59.54;93798.09;6165955;23;19989;-80
2022/12/24 11:33:06;;;;;;;80.30;38.67;;;;;;;9.11;59.37;93798.09;6165926;23;20080;-79
2022/12/24 11:35:38;;;;;;;78.28;38.22;;;;;;;9.23;58.45;93806.28;6164795;23;20342;-80
2022/12/24 11:38:03;;;;;;;;;;;;;;;9.26;58.27;93812.88;6166335;23;20032;-79
2022/12/24 11:40:41;;;;;;;66.95;33.17;;;;;;;9.09;58.58;93807.47;6165903;23;19904;-80
2022/12/24 11:43:15;;;;;;;82.25;39.20;;;;;;;9.20;58.87;93808.78;6165815;23;20204;-80